sensor_id;sensor_type;location;lat;lon;timestamp;P1;durP1;ratioP1;P2;durP2;ratioP2
23078;SDS011;11707;50.830;4.364;2022-10-10T00:01:08;6.95;;;2.67;;
23078;SDS011;11707;50.830;4.364;2022-10-10T00:03:34;8.68;;;2.88;;
23078;SDS011;11707;50.830;4.364;2022-10-10T00:06:00;7.35;;;3.20;;
23078;SDS011;11707;50.830;4.364;2022-10-10T00:08:26;6.88;;;2.63;;
23078;SDS011;11707;50.830;4.364;2022-10-10T00:10:52;8.63;;;2.95;;
23078;SDS011;11707;50.830;4.364;2022-10-10T00:13:17;9.35;;;2.92;;
23078;SDS011;11707;50.830;4.364;2022-10-10T00:15:43;10.15;;;3.38;;
23078;SDS011;11707;50.830;4.364;2022-10-10T00:18:09;6.47;;;3.22;;
23078;SDS011;11707;50.830;4.364;2022-10-10T00:20:34;11.10;;;3.35;;
23078;SDS011;11707;50.830;4.364;2022-10-10T00:23:00;9.23;;;3.30;;
23078;SDS011;11707;50.830;4.364;2022-10-10T00:25:26;7.75;;;3.60;;
23078;SDS011;11707;50.830;4.364;2022-10-10T00:27:51;8.85;;;3.83;;
23078;SDS011;11707;50.830;4.364;2022-10-10T00:30:17;11.88;;;4.30;;
23078;SDS011;11707;50.830;4.364;2022-10-10T00:32:43;9.82;;;4.03;;
23078;SDS011;11707;50.830;4.364;2022-10-10T00:35:09;10.23;;;4.13;;
23078;SDS011;11707;50.830;4.364;2022-10-10T00:37:34;10.30;;;3.95;;
23078;SDS011;11707;50.830;4.364;2022-10-10T00:40:00;12.68;;;4.18;;
23078;SDS011;11707;50.830;4.364;2022-10-10T00:42:26;7.20;;;3.67;;
23078;SDS011;11707;50.830;4.364;2022-10-10T00:47:46;6.95;;;3.65;;
23078;SDS011;11707;50.830;4.364;2022-10-10T00:50:13;14.10;;;4.00;;
23078;SDS011;11707;50.830;4.364;2022-10-10T00:52:39;9.02;;;3.80;;
23078;SDS011;11707;50.830;4.364;2022-10-10T00:55:05;9.23;;;2.95;;
23078;SDS011;11707;50.830;4.364;2022-10-10T00:57:31;6.10;;;3.70;;
23078;SDS011;11707;50.830;4.364;2022-10-10T00:59:57;13.10;;;4.32;;
23078;SDS011;11707;50.830;4.364;2022-10-10T01:02:24;9.90;;;3.30;;
23078;SDS011;11707;50.830;4.364;2022-10-10T01:04:49;8.02;;;3.22;;
23078;SDS011;11707;50.830;4.364;2022-10-10T01:07:20;12.05;;;3.72;;
23078;SDS011;11707;50.830;4.364;2022-10-10T01:09:49;10.20;;;3.60;;
23078;SDS011;11707;50.830;4.364;2022-10-10T01:15:20;10.90;;;3.60;;
23078;SDS011;11707;50.830;4.364;2022-10-10T01:20:43;7.40;;;3.17;;
23078;SDS011;11707;50.830;4.364;2022-10-10T01:23:17;8.52;;;3.08;;
23078;SDS011;11707;50.830;4.364;2022-10-10T01:26:12;9.32;;;3.55;;
23078;SDS011;11707;50.830;4.364;2022-10-10T01:28:51;11.43;;;3.60;;
23078;SDS011;11707;50.830;4.364;2022-10-10T01:31:22;15.82;;;3.28;;
23078;SDS011;11707;50.830;4.364;2022-10-10T01:39:23;6.72;;;3.20;;
23078;SDS011;11707;50.830;4.364;2022-10-10T01:41:53;8.43;;;3.67;;
23078;SDS011;11707;50.830;4.364;2022-10-10T01:44:23;7.78;;;3.30;;
23078;SDS011;11707;50.830;4.364;2022-10-10T01:46:48;6.90;;;3.35;;
23078;SDS011;11707;50.830;4.364;2022-10-10T01:49:14;7.20;;;3.33;;
23078;SDS011;11707;50.830;4.364;2022-10-10T01:51:51;17.90;;;4.45;;
23078;SDS011;11707;50.830;4.364;2022-10-10T01:54:32;7.00;;;3.05;;
23078;SDS011;11707;50.830;4.364;2022-10-10T01:57:34;12.40;;;2.85;;
23078;SDS011;11707;50.830;4.364;2022-10-10T02:00:12;6.60;;;3.27;;
23078;SDS011;11707;50.830;4.364;2022-10-10T02:05:30;7.95;;;3.03;;
23078;SDS011;11707;50.830;4.364;2022-10-10T02:08:10;11.45;;;3.85;;
23078;SDS011;11707;50.830;4.364;2022-10-10T02:10:43;11.85;;;3.85;;
23078;SDS011;11707;50.830;4.364;2022-10-10T02:13:12;10.63;;;3.90;;
23078;SDS011;11707;50.830;4.364;2022-10-10T02:15:42;8.45;;;3.13;;
23078;SDS011;11707;50.830;4.364;2022-10-10T02:18:11;7.47;;;3.25;;
23078;SDS011;11707;50.830;4.364;2022-10-10T02:20:40;10.98;;;4.03;;
23078;SDS011;11707;50.830;4.364;2022-10-10T02:23:08;9.02;;;3.22;;
23078;SDS011;11707;50.830;4.364;2022-10-10T02:25:39;9.00;;;3.25;;
23078;SDS011;11707;50.830;4.364;2022-10-10T02:31:03;6.85;;;3.20;;
23078;SDS011;11707;50.830;4.364;2022-10-10T02:33:54;6.32;;;3.47;;
23078;SDS011;11707;50.830;4.364;2022-10-10T02:36:52;7.82;;;3.50;;
23078;SDS011;11707;50.830;4.364;2022-10-10T02:39:21;11.57;;;3.10;;
23078;SDS011;11707;50.830;4.364;2022-10-10T02:41:50;5.10;;;3.03;;
23078;SDS011;11707;50.830;4.364;2022-10-10T02:44:17;6.35;;;3.03;;
23078;SDS011;11707;50.830;4.364;2022-10-10T02:46:43;8.45;;;3.03;;
23078;SDS011;11707;50.830;4.364;2022-10-10T02:49:10;7.55;;;3.70;;
23078;SDS011;11707;50.830;4.364;2022-10-10T02:51:36;7.07;;;3.85;;
23078;SDS011;11707;50.830;4.364;2022-10-10T02:54:03;8.85;;;3.55;;
23078;SDS011;11707;50.830;4.364;2022-10-10T02:56:29;12.65;;;3.85;;
23078;SDS011;11707;50.830;4.364;2022-10-10T02:58:55;7.50;;;3.35;;
23078;SDS011;11707;50.830;4.364;2022-10-10T03:01:21;10.85;;;3.63;;
23078;SDS011;11707;50.830;4.364;2022-10-10T03:03:47;14.20;;;4.50;;
23078;SDS011;11707;50.830;4.364;2022-10-10T03:06:13;7.13;;;3.17;;
23078;SDS011;11707;50.830;4.364;2022-10-10T03:08:39;7.57;;;3.35;;
23078;SDS011;11707;50.830;4.364;2022-10-10T03:11:05;10.68;;;3.45;;
23078;SDS011;11707;50.830;4.364;2022-10-10T03:13:31;8.63;;;3.67;;
23078;SDS011;11707;50.830;4.364;2022-10-10T03:15:57;9.18;;;3.58;;
23078;SDS011;11707;50.830;4.364;2022-10-10T03:18:23;6.97;;;3.38;;
23078;SDS011;11707;50.830;4.364;2022-10-10T03:20:52;11.10;;;3.60;;
23078;SDS011;11707;50.830;4.364;2022-10-10T03:23:20;7.93;;;3.30;;
23078;SDS011;11707;50.830;4.364;2022-10-10T03:25:47;7.30;;;3.30;;
23078;SDS011;11707;50.830;4.364;2022-10-10T03:28:13;13.23;;;4.30;;
23078;SDS011;11707;50.830;4.364;2022-10-10T03:30:39;4.68;;;2.88;;
23078;SDS011;11707;50.830;4.364;2022-10-10T03:33:05;13.27;;;3.60;;
23078;SDS011;11707;50.830;4.364;2022-10-10T03:35:31;9.32;;;3.42;;
23078;SDS011;11707;50.830;4.364;2022-10-10T03:37:57;9.82;;;4.00;;
23078;SDS011;11707;50.830;4.364;2022-10-10T03:40:23;6.55;;;2.90;;
23078;SDS011;11707;50.830;4.364;2022-10-10T03:42:50;8.77;;;3.15;;
23078;SDS011;11707;50.830;4.364;2022-10-10T03:45:15;7.63;;;3.33;;
23078;SDS011;11707;50.830;4.364;2022-10-10T03:47:41;8.30;;;3.35;;
23078;SDS011;11707;50.830;4.364;2022-10-10T03:50:07;11.45;;;3.42;;
23078;SDS011;11707;50.830;4.364;2022-10-10T03:52:33;9.70;;;3.20;;
23078;SDS011;11707;50.830;4.364;2022-10-10T03:54:59;9.20;;;3.17;;
23078;SDS011;11707;50.830;4.364;2022-10-10T03:57:25;10.13;;;3.83;;
23078;SDS011;11707;50.830;4.364;2022-10-10T03:59:51;6.97;;;2.90;;
23078;SDS011;11707;50.830;4.364;2022-10-10T04:02:16;7.35;;;3.83;;
23078;SDS011;11707;50.830;4.364;2022-10-10T04:04:42;10.93;;;3.35;;
23078;SDS011;11707;50.830;4.364;2022-10-10T04:07:07;9.10;;;4.00;;
23078;SDS011;11707;50.830;4.364;2022-10-10T04:09:33;9.00;;;3.17;;
23078;SDS011;11707;50.830;4.364;2022-10-10T04:11:59;8.60;;;3.65;;
23078;SDS011;11707;50.830;4.364;2022-10-10T04:14:25;16.17;;;3.90;;
23078;SDS011;11707;50.830;4.364;2022-10-10T04:16:51;8.13;;;3.45;;
23078;SDS011;11707;50.830;4.364;2022-10-10T04:19:17;11.10;;;3.40;;
23078;SDS011;11707;50.830;4.364;2022-10-10T04:21:43;12.82;;;3.90;;
23078;SDS011;11707;50.830;4.364;2022-10-10T04:24:08;8.77;;;3.47;;
23078;SDS011;11707;50.830;4.364;2022-10-10T04:26:34;8.80;;;3.63;;
23078;SDS011;11707;50.830;4.364;2022-10-10T04:29:00;7.22;;;3.10;;
23078;SDS011;11707;50.830;4.364;2022-10-10T04:31:26;8.32;;;3.45;;
23078;SDS011;11707;50.830;4.364;2022-10-10T04:33:51;7.20;;;2.58;;
23078;SDS011;11707;50.830;4.364;2022-10-10T04:36:17;9.27;;;3.92;;
23078;SDS011;11707;50.830;4.364;2022-10-10T04:38:43;9.05;;;3.72;;
23078;SDS011;11707;50.830;4.364;2022-10-10T04:41:09;7.65;;;3.08;;
23078;SDS011;11707;50.830;4.364;2022-10-10T04:43:34;8.35;;;3.97;;
23078;SDS011;11707;50.830;4.364;2022-10-10T04:46:00;11.30;;;3.80;;
23078;SDS011;11707;50.830;4.364;2022-10-10T04:48:26;6.50;;;3.45;;
23078;SDS011;11707;50.830;4.364;2022-10-10T04:50:52;6.32;;;3.38;;
23078;SDS011;11707;50.830;4.364;2022-10-10T04:53:19;10.43;;;3.17;;
23078;SDS011;11707;50.830;4.364;2022-10-10T04:55:45;7.22;;;4.18;;
23078;SDS011;11707;50.830;4.364;2022-10-10T04:58:11;8.75;;;3.60;;
23078;SDS011;11707;50.830;4.364;2022-10-10T05:00:37;6.57;;;3.85;;
23078;SDS011;11707;50.830;4.364;2022-10-10T05:03:03;9.27;;;3.50;;
23078;SDS011;11707;50.830;4.364;2022-10-10T05:05:30;9.57;;;3.83;;
23078;SDS011;11707;50.830;4.364;2022-10-10T05:07:56;18.08;;;4.63;;
23078;SDS011;11707;50.830;4.364;2022-10-10T05:10:22;16.23;;;4.28;;
23078;SDS011;11707;50.830;4.364;2022-10-10T05:12:49;7.03;;;3.58;;
23078;SDS011;11707;50.830;4.364;2022-10-10T05:15:16;9.30;;;4.15;;
23078;SDS011;11707;50.830;4.364;2022-10-10T05:17:42;4.93;;;3.20;;
23078;SDS011;11707;50.830;4.364;2022-10-10T05:20:08;11.05;;;3.20;;
23078;SDS011;11707;50.830;4.364;2022-10-10T05:22:35;7.40;;;3.35;;
23078;SDS011;11707;50.830;4.364;2022-10-10T05:25:00;8.82;;;3.72;;
23078;SDS011;11707;50.830;4.364;2022-10-10T05:27:26;8.48;;;3.80;;
23078;SDS011;11707;50.830;4.364;2022-10-10T05:29:53;9.82;;;3.33;;
23078;SDS011;11707;50.830;4.364;2022-10-10T05:32:19;10.77;;;3.67;;
23078;SDS011;11707;50.830;4.364;2022-10-10T05:34:46;8.88;;;3.45;;
23078;SDS011;11707;50.830;4.364;2022-10-10T05:37:12;8.60;;;3.88;;
23078;SDS011;11707;50.830;4.364;2022-10-10T05:39:38;7.10;;;4.10;;
23078;SDS011;11707;50.830;4.364;2022-10-10T05:42:04;10.15;;;4.25;;
23078;SDS011;11707;50.830;4.364;2022-10-10T05:44:30;7.43;;;3.83;;
23078;SDS011;11707;50.830;4.364;2022-10-10T05:46:56;6.68;;;3.72;;
23078;SDS011;11707;50.830;4.364;2022-10-10T05:49:22;7.57;;;3.72;;
23078;SDS011;11707;50.830;4.364;2022-10-10T05:51:47;8.88;;;3.92;;
23078;SDS011;11707;50.830;4.364;2022-10-10T05:54:13;14.88;;;4.00;;
23078;SDS011;11707;50.830;4.364;2022-10-10T05:56:39;15.23;;;4.50;;
23078;SDS011;11707;50.830;4.364;2022-10-10T05:59:05;10.52;;;3.97;;
23078;SDS011;11707;50.830;4.364;2022-10-10T06:01:30;9.38;;;3.45;;
23078;SDS011;11707;50.830;4.364;2022-10-10T06:03:56;13.18;;;4.13;;
23078;SDS011;11707;50.830;4.364;2022-10-10T06:06:22;10.63;;;3.47;;
23078;SDS011;11707;50.830;4.364;2022-10-10T06:08:49;11.45;;;4.10;;
23078;SDS011;11707;50.830;4.364;2022-10-10T06:11:15;9.13;;;3.53;;
23078;SDS011;11707;50.830;4.364;2022-10-10T06:13:43;19.42;;;3.95;;
23078;SDS011;11707;50.830;4.364;2022-10-10T06:16:09;12.70;;;4.85;;
23078;SDS011;11707;50.830;4.364;2022-10-10T06:18:35;13.55;;;5.55;;
23078;SDS011;11707;50.830;4.364;2022-10-10T06:21:05;13.15;;;4.68;;
23078;SDS011;11707;50.830;4.364;2022-10-10T06:23:32;16.65;;;4.38;;
23078;SDS011;11707;50.830;4.364;2022-10-10T06:25:58;9.70;;;3.72;;
23078;SDS011;11707;50.830;4.364;2022-10-10T06:28:24;9.90;;;4.40;;
23078;SDS011;11707;50.830;4.364;2022-10-10T06:30:50;17.25;;;3.60;;
23078;SDS011;11707;50.830;4.364;2022-10-10T06:33:15;12.60;;;3.60;;
23078;SDS011;11707;50.830;4.364;2022-10-10T06:35:47;11.80;;;4.03;;
23078;SDS011;11707;50.830;4.364;2022-10-10T06:38:13;10.43;;;4.13;;
23078;SDS011;11707;50.830;4.364;2022-10-10T06:40:40;9.07;;;3.75;;
23078;SDS011;11707;50.830;4.364;2022-10-10T06:43:07;10.57;;;4.53;;
23078;SDS011;11707;50.830;4.364;2022-10-10T06:45:37;14.90;;;4.30;;
23078;SDS011;11707;50.830;4.364;2022-10-10T06:48:05;14.73;;;3.65;;
23078;SDS011;11707;50.830;4.364;2022-10-10T06:50:31;12.25;;;3.83;;
23078;SDS011;11707;50.830;4.364;2022-10-10T06:52:56;7.97;;;3.75;;
23078;SDS011;11707;50.830;4.364;2022-10-10T06:55:22;20.73;;;5.20;;
23078;SDS011;11707;50.830;4.364;2022-10-10T06:57:48;37.50;;;5.80;;
23078;SDS011;11707;50.830;4.364;2022-10-10T07:00:14;9.02;;;4.45;;
23078;SDS011;11707;50.830;4.364;2022-10-10T07:02:40;9.48;;;3.80;;
23078;SDS011;11707;50.830;4.364;2022-10-10T07:05:08;13.93;;;3.95;;
23078;SDS011;11707;50.830;4.364;2022-10-10T07:07:36;10.00;;;3.47;;
23078;SDS011;11707;50.830;4.364;2022-10-10T07:10:04;10.43;;;4.15;;
23078;SDS011;11707;50.830;4.364;2022-10-10T07:12:30;9.02;;;3.70;;
23078;SDS011;11707;50.830;4.364;2022-10-10T07:14:56;13.85;;;4.00;;
23078;SDS011;11707;50.830;4.364;2022-10-10T07:17:22;11.18;;;3.80;;
23078;SDS011;11707;50.830;4.364;2022-10-10T07:19:48;12.02;;;4.78;;
23078;SDS011;11707;50.830;4.364;2022-10-10T07:22:14;12.63;;;3.95;;
23078;SDS011;11707;50.830;4.364;2022-10-10T07:24:39;14.85;;;3.83;;
23078;SDS011;11707;50.830;4.364;2022-10-10T07:27:05;8.27;;;4.05;;
23078;SDS011;11707;50.830;4.364;2022-10-10T07:29:31;18.67;;;3.90;;
23078;SDS011;11707;50.830;4.364;2022-10-10T07:31:57;9.55;;;3.92;;
23078;SDS011;11707;50.830;4.364;2022-10-10T07:34:23;8.10;;;3.70;;
23078;SDS011;11707;50.830;4.364;2022-10-10T07:36:48;9.38;;;4.05;;
23078;SDS011;11707;50.830;4.364;2022-10-10T07:39:18;11.52;;;4.00;;
23078;SDS011;11707;50.830;4.364;2022-10-10T07:41:44;9.32;;;4.28;;
23078;SDS011;11707;50.830;4.364;2022-10-10T07:44:10;12.55;;;4.85;;
23078;SDS011;11707;50.830;4.364;2022-10-10T07:46:36;14.10;;;4.15;;
23078;SDS011;11707;50.830;4.364;2022-10-10T07:49:02;19.35;;;5.00;;
23078;SDS011;11707;50.830;4.364;2022-10-10T07:51:28;13.93;;;5.18;;
23078;SDS011;11707;50.830;4.364;2022-10-10T07:53:54;13.48;;;3.90;;
23078;SDS011;11707;50.830;4.364;2022-10-10T07:56:19;12.80;;;4.10;;
23078;SDS011;11707;50.830;4.364;2022-10-10T07:58:45;10.48;;;3.70;;
23078;SDS011;11707;50.830;4.364;2022-10-10T08:01:11;15.73;;;3.88;;
23078;SDS011;11707;50.830;4.364;2022-10-10T08:03:37;8.38;;;3.83;;
23078;SDS011;11707;50.830;4.364;2022-10-10T08:06:04;17.73;;;4.45;;
23078;SDS011;11707;50.830;4.364;2022-10-10T08:08:32;10.30;;;3.40;;
23078;SDS011;11707;50.830;4.364;2022-10-10T08:10:58;13.52;;;3.63;;
23078;SDS011;11707;50.830;4.364;2022-10-10T08:13:25;11.23;;;3.53;;
23078;SDS011;11707;50.830;4.364;2022-10-10T08:15:51;12.00;;;3.25;;
23078;SDS011;11707;50.830;4.364;2022-10-10T08:18:18;12.27;;;3.78;;
23078;SDS011;11707;50.830;4.364;2022-10-10T08:20:44;12.82;;;3.45;;
23078;SDS011;11707;50.830;4.364;2022-10-10T08:23:10;10.85;;;3.60;;
23078;SDS011;11707;50.830;4.364;2022-10-10T08:25:35;12.80;;;3.60;;
23078;SDS011;11707;50.830;4.364;2022-10-10T08:28:01;13.77;;;3.80;;
23078;SDS011;11707;50.830;4.364;2022-10-10T08:30:27;16.25;;;3.90;;
23078;SDS011;11707;50.830;4.364;2022-10-10T08:32:53;10.52;;;3.88;;
23078;SDS011;11707;50.830;4.364;2022-10-10T08:35:19;10.65;;;4.18;;
23078;SDS011;11707;50.830;4.364;2022-10-10T08:37:44;14.57;;;3.53;;
23078;SDS011;11707;50.830;4.364;2022-10-10T08:40:14;8.88;;;3.55;;
23078;SDS011;11707;50.830;4.364;2022-10-10T08:42:44;14.93;;;3.50;;
23078;SDS011;11707;50.830;4.364;2022-10-10T08:45:31;13.25;;;4.40;;
23078;SDS011;11707;50.830;4.364;2022-10-10T08:48:04;15.85;;;3.47;;
23078;SDS011;11707;50.830;4.364;2022-10-10T08:50:54;13.90;;;3.53;;
23078;SDS011;11707;50.830;4.364;2022-10-10T08:53:35;12.93;;;3.40;;
23078;SDS011;11707;50.830;4.364;2022-10-10T08:56:06;20.73;;;3.95;;
23078;SDS011;11707;50.830;4.364;2022-10-10T08:58:44;14.15;;;3.20;;
23078;SDS011;11707;50.830;4.364;2022-10-10T09:03:47;13.52;;;2.80;;
23078;SDS011;11707;50.830;4.364;2022-10-10T09:15:38;21.63;;;4.30;;
23078;SDS011;11707;50.830;4.364;2022-10-10T09:26:11;15.02;;;3.88;;
23078;SDS011;11707;50.830;4.364;2022-10-10T09:28:47;14.50;;;3.92;;
23078;SDS011;11707;50.830;4.364;2022-10-10T09:34:14;19.88;;;3.70;;
23078;SDS011;11707;50.830;4.364;2022-10-10T09:36:43;12.73;;;3.75;;
23078;SDS011;11707;50.830;4.364;2022-10-10T09:41:59;18.35;;;5.10;;
23078;SDS011;11707;50.830;4.364;2022-10-10T09:44:25;13.85;;;4.15;;
23078;SDS011;11707;50.830;4.364;2022-10-10T09:46:52;12.55;;;2.95;;
23078;SDS011;11707;50.830;4.364;2022-10-10T09:49:18;13.43;;;4.43;;
23078;SDS011;11707;50.830;4.364;2022-10-10T09:51:45;13.07;;;4.43;;
23078;SDS011;11707;50.830;4.364;2022-10-10T09:54:12;14.82;;;3.78;;
23078;SDS011;11707;50.830;4.364;2022-10-10T09:56:42;20.45;;;4.47;;
23078;SDS011;11707;50.830;4.364;2022-10-10T10:02:18;18.75;;;3.22;;
23078;SDS011;11707;50.830;4.364;2022-10-10T10:04:46;12.35;;;3.85;;
23078;SDS011;11707;50.830;4.364;2022-10-10T10:09:48;10.30;;;2.88;;
23078;SDS011;11707;50.830;4.364;2022-10-10T10:12:17;14.02;;;4.03;;
23078;SDS011;11707;50.830;4.364;2022-10-10T10:14:50;9.98;;;3.63;;
23078;SDS011;11707;50.830;4.364;2022-10-10T10:17:22;12.93;;;3.10;;
23078;SDS011;11707;50.830;4.364;2022-10-10T10:19:48;10.98;;;3.55;;
23078;SDS011;11707;50.830;4.364;2022-10-10T10:24:56;14.82;;;3.50;;
23078;SDS011;11707;50.830;4.364;2022-10-10T10:27:23;22.52;;;3.47;;
23078;SDS011;11707;50.830;4.364;2022-10-10T10:29:51;15.70;;;3.30;;
23078;SDS011;11707;50.830;4.364;2022-10-10T10:48:59;9.00;;;3.25;;
23078;SDS011;11707;50.830;4.364;2022-10-10T10:54:37;14.50;;;3.90;;
23078;SDS011;11707;50.830;4.364;2022-10-10T11:00:14;21.52;;;3.55;;
23078;SDS011;11707;50.830;4.364;2022-10-10T11:21:44;14.80;;;3.88;;
23078;SDS011;11707;50.830;4.364;2022-10-10T11:24:15;14.20;;;3.00;;
23078;SDS011;11707;50.830;4.364;2022-10-10T11:27:03;15.07;;;3.25;;
23078;SDS011;11707;50.830;4.364;2022-10-10T11:29:45;11.57;;;3.38;;
23078;SDS011;11707;50.830;4.364;2022-10-10T11:32:16;14.52;;;3.58;;
23078;SDS011;11707;50.830;4.364;2022-10-10T11:38:04;12.32;;;3.97;;
23078;SDS011;11707;50.830;4.364;2022-10-10T11:43:19;12.75;;;4.10;;
23078;SDS011;11707;50.830;4.364;2022-10-10T11:50:53;14.68;;;4.28;;
23078;SDS011;11707;50.830;4.364;2022-10-10T11:53:31;16.98;;;4.95;;
23078;SDS011;11707;50.830;4.364;2022-10-10T11:56:03;17.33;;;4.82;;
23078;SDS011;11707;50.830;4.364;2022-10-10T11:58:45;19.95;;;6.25;;
23078;SDS011;11707;50.830;4.364;2022-10-10T12:03:54;21.65;;;6.80;;
23078;SDS011;11707;50.830;4.364;2022-10-10T12:09:13;19.48;;;5.70;;
23078;SDS011;11707;50.830;4.364;2022-10-10T12:11:46;19.15;;;5.63;;
23078;SDS011;11707;50.830;4.364;2022-10-10T12:14:18;12.68;;;5.70;;
23078;SDS011;11707;50.830;4.364;2022-10-10T12:16:45;11.32;;;4.97;;
23078;SDS011;11707;50.830;4.364;2022-10-10T12:21:50;14.10;;;4.72;;
23078;SDS011;11707;50.830;4.364;2022-10-10T12:24:19;12.63;;;4.38;;
23078;SDS011;11707;50.830;4.364;2022-10-10T12:34:42;22.40;;;5.30;;
23078;SDS011;11707;50.830;4.364;2022-10-10T12:37:19;11.25;;;4.28;;
23078;SDS011;11707;50.830;4.364;2022-10-10T12:45:07;15.52;;;4.80;;
23078;SDS011;11707;50.830;4.364;2022-10-10T12:47:54;12.95;;;5.25;;
23078;SDS011;11707;50.830;4.364;2022-10-10T12:50:23;19.83;;;4.80;;
23078;SDS011;11707;50.830;4.364;2022-10-10T12:52:55;10.80;;;4.28;;
23078;SDS011;11707;50.830;4.364;2022-10-10T12:55:30;22.40;;;5.10;;
23078;SDS011;11707;50.830;4.364;2022-10-10T12:58:06;18.00;;;5.25;;
23078;SDS011;11707;50.830;4.364;2022-10-10T13:00:40;10.63;;;4.35;;
23078;SDS011;11707;50.830;4.364;2022-10-10T13:03:50;11.75;;;3.83;;
23078;SDS011;11707;50.830;4.364;2022-10-10T13:06:03;13.07;;;3.92;;
23078;SDS011;11707;50.830;4.364;2022-10-10T13:08:32;12.93;;;4.78;;
23078;SDS011;11707;50.830;4.364;2022-10-10T13:11:12;10.23;;;4.18;;
23078;SDS011;11707;50.830;4.364;2022-10-10T13:13:44;15.43;;;4.43;;
23078;SDS011;11707;50.830;4.364;2022-10-10T13:16:17;10.68;;;4.68;;
23078;SDS011;11707;50.830;4.364;2022-10-10T13:18:52;18.40;;;4.90;;
23078;SDS011;11707;50.830;4.364;2022-10-10T13:21:23;15.60;;;4.50;;
23078;SDS011;11707;50.830;4.364;2022-10-10T13:24:03;18.70;;;4.63;;
23078;SDS011;11707;50.830;4.364;2022-10-10T13:29:11;18.65;;;4.53;;
23078;SDS011;11707;50.830;4.364;2022-10-10T13:32:07;15.70;;;4.40;;
23078;SDS011;11707;50.830;4.364;2022-10-10T13:34:52;8.40;;;3.88;;
23078;SDS011;11707;50.830;4.364;2022-10-10T13:37:39;13.63;;;4.07;;
23078;SDS011;11707;50.830;4.364;2022-10-10T13:40:12;18.00;;;4.45;;
23078;SDS011;11707;50.830;4.364;2022-10-10T13:42:40;19.75;;;5.13;;
23078;SDS011;11707;50.830;4.364;2022-10-10T13:50:32;15.85;;;5.20;;
23078;SDS011;11707;50.830;4.364;2022-10-10T13:53:23;17.30;;;4.72;;
23078;SDS011;11707;50.830;4.364;2022-10-10T13:58:23;12.30;;;5.32;;
23078;SDS011;11707;50.830;4.364;2022-10-10T14:00:56;20.65;;;5.57;;
23078;SDS011;11707;50.830;4.364;2022-10-10T14:03:24;15.90;;;5.53;;
23078;SDS011;11707;50.830;4.364;2022-10-10T14:05:50;13.38;;;5.15;;
23078;SDS011;11707;50.830;4.364;2022-10-10T14:08:20;12.27;;;5.22;;
23078;SDS011;11707;50.830;4.364;2022-10-10T14:11:04;14.73;;;4.97;;
23078;SDS011;11707;50.830;4.364;2022-10-10T14:13:32;13.82;;;5.60;;
23078;SDS011;11707;50.830;4.364;2022-10-10T14:16:11;16.52;;;6.53;;
23078;SDS011;11707;50.830;4.364;2022-10-10T14:18:46;15.07;;;5.88;;
23078;SDS011;11707;50.830;4.364;2022-10-10T14:21:12;14.00;;;5.32;;
23078;SDS011;11707;50.830;4.364;2022-10-10T14:23:37;13.40;;;5.45;;
23078;SDS011;11707;50.830;4.364;2022-10-10T14:26:04;33.72;;;7.35;;
23078;SDS011;11707;50.830;4.364;2022-10-10T14:28:32;12.13;;;5.60;;
23078;SDS011;11707;50.830;4.364;2022-10-10T14:31:01;19.13;;;6.00;;
23078;SDS011;11707;50.830;4.364;2022-10-10T14:33:28;22.98;;;7.95;;
23078;SDS011;11707;50.830;4.364;2022-10-10T14:35:53;15.93;;;7.95;;
23078;SDS011;11707;50.830;4.364;2022-10-10T14:38:21;14.23;;;8.07;;
23078;SDS011;11707;50.830;4.364;2022-10-10T14:40:47;14.90;;;7.60;;
23078;SDS011;11707;50.830;4.364;2022-10-10T14:43:14;18.33;;;8.45;;
23078;SDS011;11707;50.830;4.364;2022-10-10T14:45:49;21.70;;;9.40;;
23078;SDS011;11707;50.830;4.364;2022-10-10T14:48:16;20.90;;;9.07;;
23078;SDS011;11707;50.830;4.364;2022-10-10T14:50:43;15.73;;;9.75;;
23078;SDS011;11707;50.830;4.364;2022-10-10T14:53:11;20.27;;;12.98;;
23078;SDS011;11707;50.830;4.364;2022-10-10T14:55:38;20.35;;;13.82;;
23078;SDS011;11707;50.830;4.364;2022-10-10T14:58:14;15.88;;;12.68;;
23078;SDS011;11707;50.830;4.364;2022-10-10T15:00:41;26.88;;;13.43;;
23078;SDS011;11707;50.830;4.364;2022-10-10T15:03:07;18.70;;;12.10;;
23078;SDS011;11707;50.830;4.364;2022-10-10T15:05:33;17.60;;;8.57;;
23078;SDS011;11707;50.830;4.364;2022-10-10T15:07:59;22.52;;;8.70;;
23078;SDS011;11707;50.830;4.364;2022-10-10T15:10:25;15.95;;;5.35;;
23078;SDS011;11707;50.830;4.364;2022-10-10T15:12:51;7.82;;;3.90;;
23078;SDS011;11707;50.830;4.364;2022-10-10T15:15:16;16.60;;;3.63;;
23078;SDS011;11707;50.830;4.364;2022-10-10T15:17:42;5.57;;;2.92;;
23078;SDS011;11707;50.830;4.364;2022-10-10T15:20:08;10.15;;;3.22;;
23078;SDS011;11707;50.830;4.364;2022-10-10T15:22:36;4.78;;;2.60;;
23078;SDS011;11707;50.830;4.364;2022-10-10T15:25:02;7.47;;;2.80;;
23078;SDS011;11707;50.830;4.364;2022-10-10T15:27:28;8.63;;;3.67;;
23078;SDS011;11707;50.830;4.364;2022-10-10T15:29:56;8.20;;;2.70;;
23078;SDS011;11707;50.830;4.364;2022-10-10T15:32:22;8.15;;;3.13;;
23078;SDS011;11707;50.830;4.364;2022-10-10T15:34:48;4.55;;;2.30;;
23078;SDS011;11707;50.830;4.364;2022-10-10T15:37:14;8.55;;;2.90;;
23078;SDS011;11707;50.830;4.364;2022-10-10T15:39:40;12.00;;;3.55;;
23078;SDS011;11707;50.830;4.364;2022-10-10T15:42:08;4.60;;;3.17;;
23078;SDS011;11707;50.830;4.364;2022-10-10T15:44:35;4.22;;;1.90;;
23078;SDS011;11707;50.830;4.364;2022-10-10T15:47:02;5.60;;;1.92;;
23078;SDS011;11707;50.830;4.364;2022-10-10T15:49:28;3.55;;;1.60;;
23078;SDS011;11707;50.830;4.364;2022-10-10T15:51:54;7.63;;;1.90;;
23078;SDS011;11707;50.830;4.364;2022-10-10T15:54:19;2.97;;;1.63;;
23078;SDS011;11707;50.830;4.364;2022-10-10T15:56:45;5.72;;;2.42;;
23078;SDS011;11707;50.830;4.364;2022-10-10T15:59:11;7.60;;;1.98;;
23078;SDS011;11707;50.830;4.364;2022-10-10T16:01:38;2.92;;;1.70;;
23078;SDS011;11707;50.830;4.364;2022-10-10T16:04:04;6.30;;;3.20;;
23078;SDS011;11707;50.830;4.364;2022-10-10T16:06:31;4.18;;;1.52;;
23078;SDS011;11707;50.830;4.364;2022-10-10T16:08:57;8.80;;;1.88;;
23078;SDS011;11707;50.830;4.364;2022-10-10T16:11:23;3.13;;;1.17;;
23078;SDS011;11707;50.830;4.364;2022-10-10T16:13:53;9.73;;;1.92;;
23078;SDS011;11707;50.830;4.364;2022-10-10T16:16:20;8.32;;;2.65;;
23078;SDS011;11707;50.830;4.364;2022-10-10T16:18:47;7.63;;;2.03;;
23078;SDS011;11707;50.830;4.364;2022-10-10T16:21:14;9.05;;;1.75;;
23078;SDS011;11707;50.830;4.364;2022-10-10T16:23:46;9.65;;;2.67;;
23078;SDS011;11707;50.830;4.364;2022-10-10T16:26:14;32.75;;;19.50;;
23078;SDS011;11707;50.830;4.364;2022-10-10T16:28:45;24.35;;;6.18;;
23078;SDS011;11707;50.830;4.364;2022-10-10T16:31:12;7.78;;;3.30;;
23078;SDS011;11707;50.830;4.364;2022-10-10T16:33:40;18.52;;;3.92;;
23078;SDS011;11707;50.830;4.364;2022-10-10T16:36:49;10.32;;;2.85;;
23078;SDS011;11707;50.830;4.364;2022-10-10T16:38:57;11.50;;;2.92;;
23078;SDS011;11707;50.830;4.364;2022-10-10T16:41:24;17.23;;;5.05;;
23078;SDS011;11707;50.830;4.364;2022-10-10T16:43:51;14.45;;;2.38;;
23078;SDS011;11707;50.830;4.364;2022-10-10T16:46:18;13.85;;;2.33;;
23078;SDS011;11707;50.830;4.364;2022-10-10T16:48:46;17.98;;;3.22;;
23078;SDS011;11707;50.830;4.364;2022-10-10T16:51:14;19.48;;;6.55;;
23078;SDS011;11707;50.830;4.364;2022-10-10T16:53:41;18.13;;;3.45;;
23078;SDS011;11707;50.830;4.364;2022-10-10T16:56:08;8.50;;;2.45;;
23078;SDS011;11707;50.830;4.364;2022-10-10T16:58:36;11.10;;;2.10;;
23078;SDS011;11707;50.830;4.364;2022-10-10T17:01:10;11.13;;;2.40;;
23078;SDS011;11707;50.830;4.364;2022-10-10T17:03:38;15.13;;;2.67;;
23078;SDS011;11707;50.830;4.364;2022-10-10T17:06:05;13.18;;;2.92;;
23078;SDS011;11707;50.830;4.364;2022-10-10T17:08:37;16.85;;;3.00;;